createdAt,value
2022-10-23T00:01:38.200Z,6.70
2022-10-23T00:04:12.143Z,6.61
2022-10-23T00:06:38.911Z,6.59
2022-10-23T00:09:07.170Z,6.62
2022-10-23T00:11:34.880Z,6.55
2022-10-23T00:14:04.066Z,6.62
2022-10-23T00:16:31.220Z,6.47
2022-10-23T00:18:57.939Z,6.60
2022-10-23T00:21:25.262Z,6.56
2022-10-23T00:23:52.326Z,6.56
2022-10-23T00:26:19.772Z,6.60
2022-10-23T00:28:49.705Z,6.54
2022-10-23T00:31:16.665Z,6.56
2022-10-23T00:33:44.053Z,6.49
2022-10-23T00:36:13.303Z,6.48
2022-10-23T00:38:40.137Z,6.47
2022-10-23T00:41:09.174Z,6.47
2022-10-23T00:43:55.931Z,6.46
2022-10-23T00:46:22.542Z,6.35
2022-10-23T00:48:49.190Z,6.44
2022-10-23T00:51:15.840Z,6.36
2022-10-23T00:53:43.764Z,6.46
2022-10-23T00:56:10.917Z,6.45
2022-10-23T00:58:37.532Z,6.53
2022-10-23T01:01:17.217Z,6.49
2022-10-23T01:03:44.056Z,6.42
2022-10-23T01:06:18.961Z,6.41
2022-10-23T01:08:55.797Z,6.41
2022-10-23T01:11:29.258Z,6.48
2022-10-23T01:13:58.904Z,6.48
2022-10-23T01:16:40.915Z,6.47
2022-10-23T01:19:21.504Z,6.46
2022-10-23T01:22:13.466Z,6.46
2022-10-23T01:24:55.895Z,6.49
2022-10-23T01:27:24.633Z,6.46
2022-10-23T01:30:06.699Z,6.47
2022-10-23T01:32:44.656Z,6.44
2022-10-23T01:35:35.004Z,6.42
2022-10-23T01:38:15.278Z,6.45
2022-10-23T01:40:47.731Z,6.50
2022-10-23T01:43:26.505Z,6.53
2022-10-23T01:46:04.552Z,6.58
2022-10-23T01:48:32.144Z,6.59
2022-10-23T01:51:04.895Z,6.51
2022-10-23T01:53:35.205Z,6.59
2022-10-23T01:56:03.777Z,6.49
2022-10-23T01:58:31.624Z,6.52
2022-10-23T02:01:01.455Z,6.60
2022-10-23T02:03:29.531Z,6.60
2022-10-23T02:05:56.174Z,6.61
2022-10-23T02:08:22.888Z,6.59
2022-10-23T02:11:09.494Z,6.60
2022-10-23T02:13:52.702Z,6.59
2022-10-23T02:16:52.505Z,6.55
2022-10-23T02:19:43.026Z,6.51
2022-10-23T02:22:19.315Z,6.49
2022-10-23T02:24:51.102Z,6.50
2022-10-23T02:27:22.171Z,6.57
2022-10-23T02:29:52.589Z,6.57
2022-10-23T02:32:20.788Z,6.55
2022-10-23T02:34:48.077Z,6.54
2022-10-23T02:37:15.320Z,6.44
2022-10-23T02:39:42.174Z,6.55
2022-10-23T02:42:27.074Z,6.60
2022-10-23T02:45:05.855Z,6.58
2022-10-23T02:48:04.957Z,6.57
2022-10-23T02:50:43.574Z,6.57
2022-10-23T02:53:24.114Z,6.57
2022-10-23T02:56:11.031Z,6.59
2022-10-23T02:58:45.084Z,6.61
2022-10-23T03:01:17.777Z,6.58
2022-10-23T03:03:56.816Z,6.62
2022-10-23T03:06:24.166Z,6.67
2022-10-23T03:09:10.092Z,6.69
2022-10-23T03:11:36.927Z,6.61
2022-10-23T03:14:03.554Z,6.70
2022-10-23T03:16:30.197Z,6.65
2022-10-23T03:18:56.809Z,6.72
2022-10-23T03:21:23.510Z,6.75
2022-10-23T03:23:50.155Z,6.74
2022-10-23T03:26:16.788Z,6.73
2022-10-23T03:28:43.493Z,6.72
2022-10-23T03:31:10.163Z,6.79
2022-10-23T03:33:36.875Z,6.76
2022-10-23T03:36:03.807Z,6.55
2022-10-23T03:38:30.411Z,6.85
2022-10-23T03:40:57.063Z,6.88
2022-10-23T03:43:23.696Z,6.86
2022-10-23T03:45:52.045Z,6.80
2022-10-23T03:48:18.699Z,6.77
2022-10-23T03:50:45.367Z,6.95
2022-10-23T03:53:12.082Z,6.93
2022-10-23T03:55:38.754Z,6.93
2022-10-23T03:58:05.461Z,6.96
2022-10-23T04:00:32.158Z,6.97
2022-10-23T04:02:58.819Z,6.99
2022-10-23T04:05:25.418Z,7.02
2022-10-23T04:07:52.052Z,7.01
2022-10-23T04:10:18.826Z,7.03
2022-10-23T04:12:45.675Z,7.05
2022-10-23T04:15:12.407Z,7.06
2022-10-23T04:17:39.002Z,7.01
2022-10-23T04:20:05.826Z,7.08
2022-10-23T04:22:32.389Z,7.05
2022-10-23T04:24:58.978Z,7.10
2022-10-23T04:27:25.653Z,7.13
2022-10-23T04:29:54.377Z,7.13
2022-10-23T04:32:23.494Z,7.15
2022-10-23T04:34:50.078Z,7.10
2022-10-23T04:37:17.164Z,7.22
2022-10-23T04:39:43.829Z,7.23
2022-10-23T04:42:10.486Z,7.21
2022-10-23T04:44:37.093Z,7.18
2022-10-23T04:47:03.815Z,7.20
2022-10-23T04:49:30.483Z,7.25
2022-10-23T04:51:57.104Z,7.27
2022-10-23T04:54:23.798Z,7.22
2022-10-23T04:56:50.470Z,7.27
2022-10-23T04:59:17.117Z,7.28
2022-10-23T05:01:43.812Z,7.24
2022-10-23T05:04:10.501Z,7.34
2022-10-23T05:06:37.169Z,7.28
2022-10-23T05:09:04.156Z,7.29
2022-10-23T05:11:30.799Z,7.33
2022-10-23T05:13:57.454Z,7.33
2022-10-23T05:16:32.078Z,7.38
2022-10-23T05:18:59.916Z,7.36
2022-10-23T05:21:29.363Z,7.45
2022-10-23T05:23:56.099Z,7.42
2022-10-23T05:26:22.852Z,7.45
2022-10-23T05:28:49.651Z,7.48
2022-10-23T05:31:16.503Z,7.37
2022-10-23T05:33:43.483Z,7.37
2022-10-23T05:36:11.899Z,7.37
2022-10-23T05:38:38.574Z,7.49
2022-10-23T05:41:06.021Z,7.53
2022-10-23T05:43:32.683Z,7.50
2022-10-23T05:45:59.538Z,7.62
2022-10-23T05:48:41.116Z,7.61
2022-10-23T05:51:09.891Z,7.59
2022-10-23T05:53:38.902Z,7.62
2022-10-23T05:56:09.139Z,7.62
2022-10-23T05:58:36.035Z,7.64
2022-10-23T06:01:07.734Z,7.59
2022-10-23T06:03:34.938Z,7.54
2022-10-23T06:06:01.553Z,7.55
2022-10-23T06:08:28.178Z,7.59
2022-10-23T06:10:54.802Z,7.65
2022-10-23T06:13:21.446Z,7.60
2022-10-23T06:15:48.138Z,7.71
2022-10-23T06:18:14.951Z,7.73
2022-10-23T06:20:41.612Z,7.70
2022-10-23T06:23:08.657Z,7.85
2022-10-23T06:25:35.309Z,7.83
2022-10-23T06:28:01.939Z,7.93
2022-10-23T06:30:28.629Z,7.88
2022-10-23T06:32:55.438Z,7.94
2022-10-23T06:35:22.045Z,7.89
2022-10-23T06:37:48.671Z,8.00
2022-10-23T06:40:15.413Z,7.93
2022-10-23T06:42:42.237Z,8.04
2022-10-23T06:45:09.125Z,7.92
2022-10-23T06:47:35.735Z,8.08
2022-10-23T06:50:02.376Z,8.04
2022-10-23T06:52:47.859Z,8.07
2022-10-23T06:55:15.085Z,8.04
2022-10-23T06:57:42.230Z,8.13
2022-10-23T07:00:09.881Z,8.11
2022-10-23T07:02:36.817Z,8.14
2022-10-23T07:05:04.085Z,8.24
2022-10-23T07:07:30.954Z,8.11
2022-10-23T07:09:57.745Z,8.17
2022-10-23T07:12:24.565Z,8.23
2022-10-23T07:14:51.163Z,8.29
2022-10-23T07:17:17.850Z,8.28
2022-10-23T07:19:44.557Z,8.24
2022-10-23T07:22:13.449Z,8.23
2022-10-23T07:24:42.653Z,8.27
2022-10-23T07:27:09.945Z,8.35
2022-10-23T07:29:37.105Z,8.31
2022-10-23T07:32:04.616Z,8.37
2022-10-23T07:34:32.232Z,8.31
2022-10-23T07:36:58.944Z,8.42
2022-10-23T07:39:25.756Z,8.47
2022-10-23T07:41:52.526Z,8.45
2022-10-23T07:44:21.059Z,8.48
2022-10-23T07:46:50.017Z,8.52
2022-10-23T07:49:16.661Z,8.44
2022-10-23T07:51:46.414Z,8.51
2022-10-23T07:54:15.537Z,8.55
2022-10-23T07:56:42.244Z,8.56
2022-10-23T07:59:12.353Z,8.63
2022-10-23T08:01:39.265Z,8.64
2022-10-23T08:04:06.263Z,8.80
2022-10-23T08:06:35.353Z,8.73
2022-10-23T08:09:05.441Z,8.81
2022-10-23T08:11:35.774Z,8.81
2022-10-23T08:14:04.748Z,8.88
2022-10-23T08:16:34.411Z,8.87
2022-10-23T08:19:01.437Z,8.90
2022-10-23T08:21:28.221Z,8.97
2022-10-23T08:23:56.309Z,8.98
2022-10-23T08:26:24.673Z,8.88
2022-10-23T08:28:52.287Z,8.95
2022-10-23T08:31:20.934Z,8.99
2022-10-23T08:36:25.437Z,9.08
2022-10-23T08:38:56.046Z,9.15
2022-10-23T08:41:27.898Z,9.18
2022-10-23T08:44:24.244Z,9.27
2022-10-23T08:47:13.163Z,9.22
2022-10-23T08:49:41.613Z,9.25
2022-10-23T08:52:24.413Z,9.31
2022-10-23T08:54:57.256Z,9.35
2022-10-23T08:57:24.753Z,9.40
2022-10-23T09:00:05.455Z,9.42
2022-10-23T09:02:41.606Z,9.50
2022-10-23T09:05:48.234Z,9.44
2022-10-23T09:08:39.446Z,9.47
2022-10-23T09:11:11.149Z,9.48
2022-10-23T09:13:40.710Z,9.62
2022-10-23T09:16:28.790Z,9.63
2022-10-23T09:18:55.915Z,9.60
2022-10-23T09:21:29.048Z,9.62
2022-10-23T09:23:56.487Z,9.64
2022-10-23T09:26:23.665Z,9.70
2022-10-23T09:28:55.278Z,9.59
2022-10-23T09:31:21.963Z,9.75
2022-10-23T09:33:57.125Z,9.90
2022-10-23T09:36:29.260Z,9.88
2022-10-23T09:39:01.757Z,9.97
2022-10-23T09:41:30.069Z,9.98
2022-10-23T09:44:08.899Z,10.07
2022-10-23T09:46:46.726Z,10.08
2022-10-23T09:49:22.595Z,10.15
2022-10-23T09:51:56.418Z,10.19
2022-10-23T09:54:26.355Z,10.20
2022-10-23T09:56:54.604Z,10.17
2022-10-23T09:59:25.706Z,10.18
2022-10-23T10:01:58.490Z,10.25
2022-10-23T10:04:51.554Z,10.25
2022-10-23T10:07:24.311Z,10.24
2022-10-23T10:09:52.798Z,10.37
2022-10-23T10:12:28.467Z,10.33
2022-10-23T10:15:17.086Z,10.43
2022-10-23T10:17:56.113Z,10.44
2022-10-23T10:20:44.185Z,10.56
2022-10-23T10:23:28.687Z,10.49
2022-10-23T10:26:05.036Z,10.44
2022-10-23T10:28:44.834Z,10.47
2022-10-23T10:31:43.166Z,10.41
2022-10-23T10:34:12.831Z,10.34
2022-10-23T10:37:07.899Z,10.22
2022-10-23T10:39:42.497Z,10.31
2022-10-23T10:42:55.602Z,10.41
2022-10-23T10:45:38.119Z,10.36
2022-10-23T10:48:48.871Z,10.33
2022-10-23T10:51:30.302Z,10.32
2022-10-23T10:54:11.834Z,10.30
2022-10-23T10:56:40.097Z,10.30
2022-10-23T10:59:12.727Z,10.33
2022-10-23T11:01:47.735Z,10.30
2022-10-23T11:04:41.252Z,10.33
2022-10-23T11:07:12.168Z,10.41
2022-10-23T11:09:39.551Z,10.31
2022-10-23T11:12:06.401Z,10.39
2022-10-23T11:14:34.110Z,10.45
2022-10-23T11:17:05.320Z,10.63
2022-10-23T11:19:41.264Z,10.71
2022-10-23T11:22:30.261Z,10.88
2022-10-23T11:25:19.021Z,10.85
2022-10-23T11:28:13.299Z,10.81
2022-10-23T11:30:49.112Z,11.00
2022-10-23T11:33:34.212Z,11.06
2022-10-23T11:36:07.128Z,10.98
2022-10-23T11:38:35.413Z,11.09
2022-10-23T11:41:07.454Z,11.13
2022-10-23T11:43:53.242Z,11.11
2022-10-23T11:46:23.057Z,11.14
2022-10-23T11:48:49.995Z,11.04
2022-10-23T11:51:35.878Z,11.09
2022-10-23T11:54:28.735Z,11.01
2022-10-23T11:57:10.248Z,11.01
2022-10-23T11:59:43.112Z,11.03
2022-10-23T12:02:33.732Z,11.27
2022-10-23T12:05:07.595Z,11.37
2022-10-23T12:07:38.660Z,11.50
2022-10-23T12:10:07.105Z,11.51
2022-10-23T12:12:34.698Z,11.54
2022-10-23T12:15:22.172Z,11.44
2022-10-23T12:17:50.407Z,11.55
2022-10-23T12:20:21.616Z,11.55
2022-10-23T12:23:13.069Z,11.54
2022-10-23T12:25:39.678Z,11.49
2022-10-23T12:28:06.242Z,11.45
2022-10-23T12:33:52.809Z,11.52
2022-10-23T12:36:48.073Z,11.51
2022-10-23T12:39:28.853Z,11.49
2022-10-23T12:41:55.957Z,11.41
2022-10-23T12:44:24.371Z,11.45
2022-10-23T12:46:57.492Z,11.43
2022-10-23T12:49:26.579Z,11.42
2022-10-23T12:52:04.540Z,11.37
2022-10-23T12:54:32.675Z,11.39
2022-10-23T12:56:59.334Z,11.14
2022-10-23T12:59:52.118Z,11.41
2022-10-23T13:02:23.221Z,11.40
2022-10-23T13:04:51.753Z,11.36
2022-10-23T13:07:27.253Z,11.29
2022-10-23T13:09:54.513Z,11.27
2022-10-23T13:12:32.937Z,11.19
2022-10-23T13:15:14.585Z,11.15
2022-10-23T13:17:42.550Z,11.12
2022-10-23T13:20:18.505Z,11.09
2022-10-23T13:22:47.007Z,11.04
2022-10-23T13:25:27.173Z,11.07
2022-10-23T13:28:09.017Z,11.08
2022-10-23T13:30:42.134Z,11.00
2022-10-23T13:33:20.854Z,10.98
2022-10-23T13:36:23.433Z,10.89
2022-10-23T13:39:10.334Z,10.86
2022-10-23T13:41:40.656Z,10.90
2022-10-23T13:44:07.722Z,10.85
2022-10-23T13:46:34.368Z,10.80
2022-10-23T13:49:00.987Z,10.76
2022-10-23T13:51:29.059Z,10.72
2022-10-23T13:53:56.978Z,10.69
2022-10-23T13:56:25.339Z,10.64
2022-10-23T13:58:52.064Z,10.60
2022-10-23T14:01:29.908Z,10.64
2022-10-23T14:03:58.048Z,10.53
2022-10-23T14:06:25.189Z,10.55
2022-10-23T14:08:52.146Z,10.54
2022-10-23T14:11:20.140Z,10.50
2022-10-23T14:13:48.414Z,10.46
2022-10-23T14:16:17.125Z,10.49
2022-10-23T14:18:44.057Z,10.46
2022-10-23T14:21:15.319Z,10.40
2022-10-23T14:23:41.966Z,10.35
2022-10-23T14:26:11.854Z,10.35
2022-10-23T14:28:38.873Z,10.38
2022-10-23T14:31:06.774Z,10.30
2022-10-23T14:33:33.563Z,10.27
2022-10-23T14:36:00.194Z,10.18
2022-10-23T14:38:27.202Z,10.17
2022-10-23T14:40:53.851Z,10.16
2022-10-23T14:43:20.954Z,10.17
2022-10-23T14:45:47.576Z,10.13
2022-10-23T14:48:14.256Z,10.10
2022-10-23T14:50:46.786Z,10.12
2022-10-23T14:53:14.165Z,10.12
2022-10-23T14:55:40.807Z,10.00
2022-10-23T14:58:08.037Z,10.10
2022-10-23T15:00:34.666Z,10.14
2022-10-23T15:03:01.289Z,10.10
2022-10-23T15:05:27.940Z,10.07
2022-10-23T15:07:55.970Z,10.08
2022-10-23T15:10:22.613Z,10.13
2022-10-23T15:12:49.371Z,10.09
2022-10-23T15:15:16.019Z,10.04
2022-10-23T15:17:42.632Z,10.08
2022-10-23T15:20:09.880Z,10.13
2022-10-23T15:22:36.484Z,9.95
2022-10-23T15:25:03.214Z,10.11
2022-10-23T15:27:29.838Z,10.10
2022-10-23T15:29:56.503Z,10.07
2022-10-23T15:32:23.320Z,10.09
2022-10-23T15:34:50.362Z,10.08
2022-10-23T15:37:16.962Z,10.12
2022-10-23T15:39:44.388Z,10.11
2022-10-23T15:42:11.603Z,10.13
2022-10-23T15:44:39.750Z,9.90
2022-10-23T15:47:06.439Z,10.06
2022-10-23T15:49:33.359Z,10.12
2022-10-23T15:52:00.116Z,10.06
2022-10-23T15:54:29.341Z,10.07
2022-10-23T15:56:58.720Z,9.81
2022-10-23T15:59:25.953Z,10.00
2022-10-23T16:01:52.843Z,10.02
2022-10-23T16:04:20.092Z,9.91
2022-10-23T16:06:47.145Z,10.03
2022-10-23T16:09:14.374Z,9.98
2022-10-23T16:11:42.711Z,9.98
2022-10-23T16:14:13.258Z,10.02
2022-10-23T16:16:39.974Z,9.94
2022-10-23T16:19:06.683Z,10.01
2022-10-23T16:21:35.890Z,9.95
2022-10-23T16:24:04.919Z,10.00
2022-10-23T16:26:31.832Z,9.98
2022-10-23T16:29:01.201Z,9.86
2022-10-23T16:31:28.794Z,10.03
2022-10-23T16:36:29.700Z,9.99
2022-10-23T16:38:56.765Z,9.98
2022-10-23T16:41:23.375Z,9.92
2022-10-23T16:43:50.189Z,9.90
2022-10-23T16:46:19.752Z,10.00
2022-10-23T16:48:46.693Z,9.92
2022-10-23T16:51:15.686Z,9.99
2022-10-23T16:53:43.489Z,9.99
2022-10-23T16:56:11.918Z,9.93
2022-10-23T16:58:41.027Z,10.00
2022-10-23T17:01:10.829Z,9.89
2022-10-23T17:03:39.867Z,9.97
2022-10-23T17:06:11.061Z,10.02
2022-10-23T17:08:38.026Z,9.87
2022-10-23T17:11:04.643Z,10.01
2022-10-23T17:13:31.446Z,10.03
2022-10-23T17:16:10.200Z,9.93
2022-10-23T17:18:39.914Z,10.10
2022-10-23T17:21:11.229Z,9.95
2022-10-23T17:23:37.966Z,10.10
2022-10-23T17:26:14.313Z,10.10
2022-10-23T17:28:42.470Z,10.07
2022-10-23T17:31:33.667Z,10.14
2022-10-23T17:34:04.160Z,10.15
2022-10-23T17:36:33.472Z,10.09
2022-10-23T17:39:00.238Z,10.05
2022-10-23T17:41:27.065Z,10.05
2022-10-23T17:43:58.500Z,10.12
2022-10-23T17:46:26.064Z,10.22
2022-10-23T17:48:53.177Z,10.20
2022-10-23T17:51:22.767Z,10.23
2022-10-23T17:53:51.456Z,10.22
2022-10-23T17:56:25.022Z,10.24
2022-10-23T17:58:59.261Z,10.20
2022-10-23T18:01:27.605Z,10.16
2022-10-23T18:03:55.672Z,10.27
2022-10-23T18:06:28.776Z,10.23
2022-10-23T18:08:57.148Z,10.27
2022-10-23T18:11:26.725Z,10.25
2022-10-23T18:13:54.134Z,10.28
2022-10-23T18:16:21.237Z,10.28
2022-10-23T18:18:48.888Z,10.25
2022-10-23T18:21:17.719Z,10.18
2022-10-23T18:23:44.535Z,10.18
2022-10-23T18:26:22.785Z,10.23
2022-10-23T18:28:51.729Z,10.27
2022-10-23T18:31:19.892Z,10.32
2022-10-23T18:33:47.170Z,10.31
2022-10-23T18:36:16.053Z,10.32
2022-10-23T18:38:43.368Z,10.33
2022-10-23T18:41:10.404Z,10.29
2022-10-23T18:43:44.862Z,10.20
2022-10-23T18:46:14.858Z,10.18
2022-10-23T18:48:42.238Z,10.18
2022-10-23T18:51:23.904Z,10.27
2022-10-23T18:53:50.862Z,10.20
2022-10-23T18:56:23.403Z,10.29
2022-10-23T18:58:55.647Z,10.16
2022-10-23T19:01:23.244Z,10.22
2022-10-23T19:03:50.125Z,10.19
2022-10-23T19:06:18.205Z,10.19
2022-10-23T19:08:45.517Z,10.18
2022-10-23T19:11:13.397Z,10.24
2022-10-23T19:13:40.827Z,10.25
2022-10-23T19:16:12.150Z,10.15
2022-10-23T19:18:40.970Z,9.98
2022-10-23T19:21:07.833Z,10.16
2022-10-23T19:23:36.524Z,10.20
2022-10-23T19:26:09.077Z,10.14
2022-10-23T19:28:38.026Z,10.19
2022-10-23T19:31:05.507Z,10.14
2022-10-23T19:33:32.682Z,10.07
2022-10-23T19:36:01.238Z,10.11
2022-10-23T19:38:31.904Z,10.23
2022-10-23T19:40:58.496Z,10.12
2022-10-23T19:43:25.097Z,10.18
2022-10-23T19:45:51.693Z,10.12
2022-10-23T19:48:18.345Z,10.19
2022-10-23T19:50:45.065Z,10.18
2022-10-23T19:53:11.879Z,10.07
2022-10-23T19:55:38.491Z,10.14
2022-10-23T19:58:05.124Z,10.10
2022-10-23T20:00:31.735Z,10.03
2022-10-23T20:02:58.788Z,10.24
2022-10-23T20:05:26.328Z,10.15
2022-10-23T20:07:53.344Z,10.15
2022-10-23T20:10:20.024Z,10.24
2022-10-23T20:12:56.442Z,10.23
2022-10-23T20:15:29.161Z,10.19
2022-10-23T20:17:55.909Z,10.25
2022-10-23T20:20:22.921Z,10.17
2022-10-23T20:22:54.537Z,10.15
2022-10-23T20:25:22.175Z,10.19
2022-10-23T20:27:48.882Z,10.28
2022-10-23T20:30:15.532Z,10.31
2022-10-23T20:32:42.412Z,10.28
2022-10-23T20:35:09.920Z,10.24
2022-10-23T20:37:36.558Z,10.29
2022-10-23T20:40:03.441Z,10.27
2022-10-23T20:42:30.068Z,10.13
2022-10-23T20:44:56.681Z,10.23
2022-10-23T20:47:23.299Z,10.26
2022-10-23T20:49:49.971Z,10.28
2022-10-23T20:52:16.688Z,10.27
2022-10-23T20:54:43.356Z,10.25
2022-10-23T20:57:10.013Z,10.30
2022-10-23T20:59:36.618Z,10.23
2022-10-23T21:02:03.435Z,10.12
2022-10-23T21:04:30.165Z,10.27
2022-10-23T21:07:09.981Z,10.26
2022-10-23T21:09:38.023Z,10.19
2022-10-23T21:12:06.632Z,10.33
2022-10-23T21:14:33.770Z,10.33
2022-10-23T21:17:00.496Z,10.19
2022-10-23T21:19:27.282Z,10.30
2022-10-23T21:21:54.614Z,10.26
2022-10-23T21:24:21.242Z,10.33
2022-10-23T21:26:48.061Z,10.31
2022-10-23T21:29:19.396Z,10.28
2022-10-23T21:31:54.507Z,10.28
2022-10-23T21:34:21.421Z,10.29
2022-10-23T21:37:11.210Z,10.21
2022-10-23T21:39:34.820Z,10.26
2022-10-23T21:42:01.479Z,10.29
2022-10-23T21:44:28.108Z,10.21
2022-10-23T21:46:55.365Z,10.19
2022-10-23T21:49:21.987Z,10.21
2022-10-23T21:51:48.571Z,10.25
2022-10-23T21:54:15.533Z,10.20
2022-10-23T21:56:48.243Z,10.15
2022-10-23T21:59:17.615Z,10.17
2022-10-23T22:01:45.797Z,10.07
2022-10-23T22:04:17.528Z,10.10
2022-10-23T22:06:44.882Z,10.12
2022-10-23T22:09:16.562Z,10.14
2022-10-23T22:11:43.215Z,10.06
2022-10-23T22:14:09.935Z,10.08
2022-10-23T22:16:36.762Z,10.10
2022-10-23T22:19:03.854Z,10.07
2022-10-23T22:21:30.846Z,10.08
2022-10-23T22:23:59.063Z,10.13
2022-10-23T22:26:27.557Z,10.10
2022-10-23T22:28:55.754Z,10.15
2022-10-23T22:31:25.912Z,10.20
2022-10-23T22:33:53.588Z,10.23
2022-10-23T22:36:20.617Z,10.29
2022-10-23T22:38:47.377Z,10.25
2022-10-23T22:41:14.491Z,10.21
2022-10-23T22:43:41.244Z,10.27
2022-10-23T22:46:13.433Z,10.23
2022-10-23T22:48:40.426Z,10.27
2022-10-23T22:51:09.056Z,10.28
2022-10-23T22:53:36.128Z,10.33
2022-10-23T22:56:06.675Z,10.29
2022-10-23T22:58:33.815Z,10.25
2022-10-23T23:01:11.822Z,10.33
2022-10-23T23:03:38.851Z,10.33
2022-10-23T23:06:07.088Z,10.33
2022-10-23T23:08:34.857Z,10.24
2022-10-23T23:11:01.866Z,10.35
2022-10-23T23:13:28.687Z,10.34
2022-10-23T23:15:55.625Z,10.38
2022-10-23T23:18:22.886Z,10.30
2022-10-23T23:20:49.537Z,10.31
2022-10-23T23:23:16.676Z,10.36
2022-10-23T23:25:47.462Z,10.39
2022-10-23T23:28:15.734Z,10.44
2022-10-23T23:30:43.070Z,10.46
2022-10-23T23:33:10.489Z,10.39
2022-10-23T23:35:45.048Z,10.40
2022-10-23T23:38:12.798Z,10.40
2022-10-23T23:40:40.157Z,10.40
2022-10-23T23:43:07.169Z,10.41
2022-10-23T23:45:34.105Z,10.44
2022-10-23T23:48:00.800Z,10.44
2022-10-23T23:50:28.135Z,10.31
2022-10-23T23:52:54.870Z,10.31
2022-10-23T23:55:21.495Z,10.36
2022-10-23T23:57:48.161Z,10.39
